sensor_id;sensor_type;location;lat;lon;timestamp;P1;durP1;ratioP1;P2;durP2;ratioP2
45548;SDS011;31270;48.328;10.096;2022-07-04T00:00:20;3.38;;;3.08;;
45548;SDS011;31270;48.328;10.096;2022-07-04T00:02:46;3.10;;;2.80;;
45548;SDS011;31270;48.328;10.096;2022-07-04T00:05:12;3.65;;;2.80;;
45548;SDS011;31270;48.328;10.096;2022-07-04T00:07:39;3.10;;;2.80;;
45548;SDS011;31270;48.328;10.096;2022-07-04T00:10:07;3.20;;;2.90;;
45548;SDS011;31270;48.328;10.096;2022-07-04T00:12:34;3.72;;;3.20;;
45548;SDS011;31270;48.328;10.096;2022-07-04T00:15:00;4.90;;;3.00;;
45548;SDS011;31270;48.328;10.096;2022-07-04T00:17:26;3.60;;;3.00;;
45548;SDS011;31270;48.328;10.096;2022-07-04T00:19:52;3.35;;;3.03;;
45548;SDS011;31270;48.328;10.096;2022-07-04T00:22:18;5.97;;;2.80;;
45548;SDS011;31270;48.328;10.096;2022-07-04T00:24:44;3.22;;;3.03;;
45548;SDS011;31270;48.328;10.096;2022-07-04T00:27:09;3.60;;;3.30;;
45548;SDS011;31270;48.328;10.096;2022-07-04T00:29:35;4.00;;;3.13;;
45548;SDS011;31270;48.328;10.096;2022-07-04T00:32:01;6.10;;;3.10;;
45548;SDS011;31270;48.328;10.096;2022-07-04T00:34:27;3.30;;;3.00;;
45548;SDS011;31270;48.328;10.096;2022-07-04T00:36:53;3.55;;;3.20;;
45548;SDS011;31270;48.328;10.096;2022-07-04T00:39:19;6.13;;;3.53;;
45548;SDS011;31270;48.328;10.096;2022-07-04T00:41:45;7.75;;;4.22;;
45548;SDS011;31270;48.328;10.096;2022-07-04T00:44:12;6.18;;;3.17;;
45548;SDS011;31270;48.328;10.096;2022-07-04T00:46:38;3.60;;;3.30;;
45548;SDS011;31270;48.328;10.096;2022-07-04T00:49:05;5.07;;;3.10;;
45548;SDS011;31270;48.328;10.096;2022-07-04T00:51:31;3.70;;;3.40;;
45548;SDS011;31270;48.328;10.096;2022-07-04T00:53:57;4.18;;;3.30;;
45548;SDS011;31270;48.328;10.096;2022-07-04T00:56:24;4.03;;;3.30;;
45548;SDS011;31270;48.328;10.096;2022-07-04T00:58:50;3.78;;;3.47;;
45548;SDS011;31270;48.328;10.096;2022-07-04T01:01:18;4.47;;;4.07;;
45548;SDS011;31270;48.328;10.096;2022-07-04T01:03:47;4.13;;;3.72;;
45548;SDS011;31270;48.328;10.096;2022-07-04T01:06:14;3.80;;;3.28;;
45548;SDS011;31270;48.328;10.096;2022-07-04T01:08:41;4.93;;;3.67;;
45548;SDS011;31270;48.328;10.096;2022-07-04T01:11:08;3.90;;;3.60;;
45548;SDS011;31270;48.328;10.096;2022-07-04T01:13:34;4.18;;;3.20;;
45548;SDS011;31270;48.328;10.096;2022-07-04T01:16:01;6.55;;;4.00;;
45548;SDS011;31270;48.328;10.096;2022-07-04T01:18:27;4.90;;;3.60;;
45548;SDS011;31270;48.328;10.096;2022-07-04T01:20:52;3.72;;;3.42;;
45548;SDS011;31270;48.328;10.096;2022-07-04T01:23:18;5.70;;;3.55;;
45548;SDS011;31270;48.328;10.096;2022-07-04T01:25:44;4.97;;;3.88;;
45548;SDS011;31270;48.328;10.096;2022-07-04T01:28:09;4.93;;;3.67;;
45548;SDS011;31270;48.328;10.096;2022-07-04T01:30:36;4.28;;;3.83;;
45548;SDS011;31270;48.328;10.096;2022-07-04T01:33:02;5.70;;;3.63;;
45548;SDS011;31270;48.328;10.096;2022-07-04T01:35:28;4.15;;;3.78;;
45548;SDS011;31270;48.328;10.096;2022-07-04T01:37:55;4.22;;;3.83;;
45548;SDS011;31270;48.328;10.096;2022-07-04T01:40:21;4.25;;;3.85;;
45548;SDS011;31270;48.328;10.096;2022-07-04T01:42:46;4.97;;;4.07;;
45548;SDS011;31270;48.328;10.096;2022-07-04T01:45:12;4.72;;;3.80;;
45548;SDS011;31270;48.328;10.096;2022-07-04T01:47:38;4.95;;;3.92;;
45548;SDS011;31270;48.328;10.096;2022-07-04T01:50:05;4.78;;;3.95;;
45548;SDS011;31270;48.328;10.096;2022-07-04T01:52:33;4.60;;;4.20;;
45548;SDS011;31270;48.328;10.096;2022-07-04T01:55:00;4.47;;;4.07;;
45548;SDS011;31270;48.328;10.096;2022-07-04T01:57:26;4.97;;;4.57;;
45548;SDS011;31270;48.328;10.096;2022-07-04T01:59:51;5.00;;;4.35;;
45548;SDS011;31270;48.328;10.096;2022-07-04T02:02:49;6.28;;;4.30;;
45548;SDS011;31270;48.328;10.096;2022-07-04T02:05:15;5.95;;;4.20;;
45548;SDS011;31270;48.328;10.096;2022-07-04T02:07:41;6.95;;;4.50;;
45548;SDS011;31270;48.328;10.096;2022-07-04T02:10:07;6.60;;;4.75;;
45548;SDS011;31270;48.328;10.096;2022-07-04T02:12:33;6.47;;;4.32;;
45548;SDS011;31270;48.328;10.096;2022-07-04T02:15:17;5.47;;;4.57;;
45548;SDS011;31270;48.328;10.096;2022-07-04T02:17:42;7.90;;;5.05;;
45548;SDS011;31270;48.328;10.096;2022-07-04T02:20:08;8.20;;;4.28;;
45548;SDS011;31270;48.328;10.096;2022-07-04T02:22:34;6.90;;;4.40;;
45548;SDS011;31270;48.328;10.096;2022-07-04T02:24:59;6.00;;;4.40;;
45548;SDS011;31270;48.328;10.096;2022-07-04T02:27:25;7.20;;;4.93;;
45548;SDS011;31270;48.328;10.096;2022-07-04T02:29:51;5.05;;;4.60;;
45548;SDS011;31270;48.328;10.096;2022-07-04T02:32:16;6.07;;;4.50;;
45548;SDS011;31270;48.328;10.096;2022-07-04T02:34:42;4.63;;;4.22;;
45548;SDS011;31270;48.328;10.096;2022-07-04T02:37:08;5.07;;;4.57;;
45548;SDS011;31270;48.328;10.096;2022-07-04T02:39:34;6.95;;;4.53;;
45548;SDS011;31270;48.328;10.096;2022-07-04T02:42:01;5.03;;;4.57;;
45548;SDS011;31270;48.328;10.096;2022-07-04T02:44:27;5.82;;;4.53;;
45548;SDS011;31270;48.328;10.096;2022-07-04T02:46:52;6.75;;;4.75;;
45548;SDS011;31270;48.328;10.096;2022-07-04T02:49:18;7.85;;;5.18;;
45548;SDS011;31270;48.328;10.096;2022-07-04T02:51:44;6.82;;;5.28;;
45548;SDS011;31270;48.328;10.096;2022-07-04T02:54:10;7.55;;;5.43;;
45548;SDS011;31270;48.328;10.096;2022-07-04T02:56:35;6.32;;;5.65;;
45548;SDS011;31270;48.328;10.096;2022-07-04T02:59:01;9.73;;;4.80;;
45548;SDS011;31270;48.328;10.096;2022-07-04T03:01:27;7.18;;;4.93;;
45548;SDS011;31270;48.328;10.096;2022-07-04T03:03:52;5.68;;;4.88;;
45548;SDS011;31270;48.328;10.096;2022-07-04T03:06:18;6.10;;;5.45;;
45548;SDS011;31270;48.328;10.096;2022-07-04T03:08:44;6.75;;;5.57;;
45548;SDS011;31270;48.328;10.096;2022-07-04T03:11:09;6.22;;;5.30;;
45548;SDS011;31270;48.328;10.096;2022-07-04T03:13:36;5.70;;;5.10;;
45548;SDS011;31270;48.328;10.096;2022-07-04T03:16:02;5.82;;;5.18;;
45548;SDS011;31270;48.328;10.096;2022-07-04T03:18:28;6.90;;;5.82;;
45548;SDS011;31270;48.328;10.096;2022-07-04T03:20:53;6.05;;;5.50;;
45548;SDS011;31270;48.328;10.096;2022-07-04T03:23:19;10.10;;;6.00;;
45548;SDS011;31270;48.328;10.096;2022-07-04T03:25:45;6.00;;;5.40;;
45548;SDS011;31270;48.328;10.096;2022-07-04T03:28:10;9.65;;;6.18;;
45548;SDS011;31270;48.328;10.096;2022-07-04T03:30:36;9.05;;;5.93;;
45548;SDS011;31270;48.328;10.096;2022-07-04T03:33:02;7.65;;;6.30;;
45548;SDS011;31270;48.328;10.096;2022-07-04T03:35:28;9.18;;;5.78;;
45548;SDS011;31270;48.328;10.096;2022-07-04T03:37:53;8.70;;;6.00;;
45548;SDS011;31270;48.328;10.096;2022-07-04T03:40:19;6.13;;;5.53;;
45548;SDS011;31270;48.328;10.096;2022-07-04T03:42:46;7.85;;;5.72;;
45548;SDS011;31270;48.328;10.096;2022-07-04T03:45:12;6.07;;;5.20;;
45548;SDS011;31270;48.328;10.096;2022-07-04T03:47:37;6.40;;;5.55;;
45548;SDS011;31270;48.328;10.096;2022-07-04T03:50:03;8.68;;;5.40;;
45548;SDS011;31270;48.328;10.096;2022-07-04T03:52:30;6.20;;;5.60;;
45548;SDS011;31270;48.328;10.096;2022-07-04T03:54:55;6.40;;;5.30;;
45548;SDS011;31270;48.328;10.096;2022-07-04T03:57:21;8.23;;;5.20;;
45548;SDS011;31270;48.328;10.096;2022-07-04T03:59:47;7.78;;;5.80;;
45548;SDS011;31270;48.328;10.096;2022-07-04T04:02:13;7.00;;;5.75;;
45548;SDS011;31270;48.328;10.096;2022-07-04T04:04:38;9.80;;;6.13;;
45548;SDS011;31270;48.328;10.096;2022-07-04T04:07:22;8.52;;;5.50;;
45548;SDS011;31270;48.328;10.096;2022-07-04T04:09:48;7.38;;;5.57;;
45548;SDS011;31270;48.328;10.096;2022-07-04T04:12:14;7.22;;;5.68;;
45548;SDS011;31270;48.328;10.096;2022-07-04T04:14:39;10.43;;;5.88;;
45548;SDS011;31270;48.328;10.096;2022-07-04T04:17:05;8.35;;;5.75;;
45548;SDS011;31270;48.328;10.096;2022-07-04T04:19:30;6.90;;;6.20;;
45548;SDS011;31270;48.328;10.096;2022-07-04T04:21:56;8.63;;;5.78;;
45548;SDS011;31270;48.328;10.096;2022-07-04T04:24:22;9.15;;;6.43;;
45548;SDS011;31270;48.328;10.096;2022-07-04T04:26:47;6.32;;;5.72;;
45548;SDS011;31270;48.328;10.096;2022-07-04T04:29:13;10.25;;;6.10;;
45548;SDS011;31270;48.328;10.096;2022-07-04T04:31:39;7.05;;;6.35;;
45548;SDS011;31270;48.328;10.096;2022-07-04T04:34:04;9.10;;;6.18;;
45548;SDS011;31270;48.328;10.096;2022-07-04T04:36:30;7.13;;;6.43;;
45548;SDS011;31270;48.328;10.096;2022-07-04T04:38:56;11.48;;;6.50;;
45548;SDS011;31270;48.328;10.096;2022-07-04T04:41:21;10.50;;;6.68;;
45548;SDS011;31270;48.328;10.096;2022-07-04T04:43:47;7.25;;;6.53;;
45548;SDS011;31270;48.328;10.096;2022-07-04T04:46:13;7.10;;;6.30;;
45548;SDS011;31270;48.328;10.096;2022-07-04T04:48:39;11.10;;;6.25;;
45548;SDS011;31270;48.328;10.096;2022-07-04T04:51:05;6.95;;;6.10;;
45548;SDS011;31270;48.328;10.096;2022-07-04T04:53:30;6.25;;;5.75;;
45548;SDS011;31270;48.328;10.096;2022-07-04T04:55:56;7.72;;;5.57;;
45548;SDS011;31270;48.328;10.096;2022-07-04T04:58:21;6.85;;;6.00;;
45548;SDS011;31270;48.328;10.096;2022-07-04T05:00:48;6.28;;;5.68;;
45548;SDS011;31270;48.328;10.096;2022-07-04T05:03:17;6.85;;;6.13;;
45548;SDS011;31270;48.328;10.096;2022-07-04T05:05:43;5.97;;;5.43;;
45548;SDS011;31270;48.328;10.096;2022-07-04T05:08:10;9.10;;;5.82;;
45548;SDS011;31270;48.328;10.096;2022-07-04T05:10:37;7.85;;;5.72;;
45548;SDS011;31270;48.328;10.096;2022-07-04T05:13:04;6.80;;;6.18;;
45548;SDS011;31270;48.328;10.096;2022-07-04T05:15:30;8.32;;;5.88;;
45548;SDS011;31270;48.328;10.096;2022-07-04T05:17:55;6.50;;;5.80;;
45548;SDS011;31270;48.328;10.096;2022-07-04T05:20:21;6.45;;;5.57;;
45548;SDS011;31270;48.328;10.096;2022-07-04T05:22:47;6.57;;;5.53;;
45548;SDS011;31270;48.328;10.096;2022-07-04T05:25:12;8.45;;;5.68;;
45548;SDS011;31270;48.328;10.096;2022-07-04T05:27:38;11.60;;;5.63;;
45548;SDS011;31270;48.328;10.096;2022-07-04T05:30:05;7.88;;;5.45;;
45548;SDS011;31270;48.328;10.096;2022-07-04T05:32:31;5.97;;;5.45;;
45548;SDS011;31270;48.328;10.096;2022-07-04T05:34:57;5.97;;;5.35;;
45548;SDS011;31270;48.328;10.096;2022-07-04T05:37:23;7.00;;;5.30;;
45548;SDS011;31270;48.328;10.096;2022-07-04T05:39:49;6.20;;;5.47;;
45548;SDS011;31270;48.328;10.096;2022-07-04T05:42:15;5.45;;;4.85;;
45548;SDS011;31270;48.328;10.096;2022-07-04T05:44:41;5.85;;;4.90;;
45548;SDS011;31270;48.328;10.096;2022-07-04T05:47:06;6.13;;;5.53;;
45548;SDS011;31270;48.328;10.096;2022-07-04T05:49:33;8.38;;;4.93;;
45548;SDS011;31270;48.328;10.096;2022-07-04T05:51:58;6.45;;;4.93;;
45548;SDS011;31270;48.328;10.096;2022-07-04T05:54:24;8.88;;;5.32;;
45548;SDS011;31270;48.328;10.096;2022-07-04T05:56:50;5.88;;;5.28;;
45548;SDS011;31270;48.328;10.096;2022-07-04T05:59:15;7.85;;;5.50;;
45548;SDS011;31270;48.328;10.096;2022-07-04T06:01:41;6.53;;;5.10;;
45548;SDS011;31270;48.328;10.096;2022-07-04T06:04:06;5.80;;;4.70;;
45548;SDS011;31270;48.328;10.096;2022-07-04T06:06:32;5.68;;;4.85;;
45548;SDS011;31270;48.328;10.096;2022-07-04T06:08:59;8.50;;;5.18;;
45548;SDS011;31270;48.328;10.096;2022-07-04T06:11:24;6.65;;;4.80;;
45548;SDS011;31270;48.328;10.096;2022-07-04T06:13:50;8.43;;;4.97;;
45548;SDS011;31270;48.328;10.096;2022-07-04T06:16:16;9.70;;;4.80;;
45548;SDS011;31270;48.328;10.096;2022-07-04T06:18:42;7.47;;;4.80;;
45548;SDS011;31270;48.328;10.096;2022-07-04T06:21:08;5.38;;;4.60;;
45548;SDS011;31270;48.328;10.096;2022-07-04T06:23:34;5.45;;;4.93;;
45548;SDS011;31270;48.328;10.096;2022-07-04T06:26:01;6.30;;;4.65;;
45548;SDS011;31270;48.328;10.096;2022-07-04T06:28:28;5.97;;;4.68;;
45548;SDS011;31270;48.328;10.096;2022-07-04T06:30:54;7.55;;;4.88;;
45548;SDS011;31270;48.328;10.096;2022-07-04T06:33:20;5.68;;;5.10;;
45548;SDS011;31270;48.328;10.096;2022-07-04T06:35:45;5.22;;;4.38;;
45548;SDS011;31270;48.328;10.096;2022-07-04T06:38:14;6.88;;;5.18;;
45548;SDS011;31270;48.328;10.096;2022-07-04T06:40:41;6.15;;;4.20;;
45548;SDS011;31270;48.328;10.096;2022-07-04T06:43:06;4.95;;;4.53;;
45548;SDS011;31270;48.328;10.096;2022-07-04T06:45:33;5.50;;;4.57;;
45548;SDS011;31270;48.328;10.096;2022-07-04T06:47:59;6.10;;;4.68;;
45548;SDS011;31270;48.328;10.096;2022-07-04T06:50:26;6.78;;;4.53;;
45548;SDS011;31270;48.328;10.096;2022-07-04T06:52:52;7.07;;;4.28;;
45548;SDS011;31270;48.328;10.096;2022-07-04T06:55:17;5.95;;;4.57;;
45548;SDS011;31270;48.328;10.096;2022-07-04T06:57:43;7.40;;;5.10;;
45548;SDS011;31270;48.328;10.096;2022-07-04T07:00:09;5.35;;;4.63;;
45548;SDS011;31270;48.328;10.096;2022-07-04T07:02:35;8.65;;;4.60;;
45548;SDS011;31270;48.328;10.096;2022-07-04T07:05:02;4.63;;;4.15;;
45548;SDS011;31270;48.328;10.096;2022-07-04T07:07:28;5.72;;;4.40;;
45548;SDS011;31270;48.328;10.096;2022-07-04T07:09:54;5.55;;;4.88;;
45548;SDS011;31270;48.328;10.096;2022-07-04T07:12:21;5.03;;;4.38;;
45548;SDS011;31270;48.328;10.096;2022-07-04T07:14:47;4.50;;;4.10;;
45548;SDS011;31270;48.328;10.096;2022-07-04T07:17:14;5.32;;;3.97;;
45548;SDS011;31270;48.328;10.096;2022-07-04T07:19:40;6.07;;;4.22;;
45548;SDS011;31270;48.328;10.096;2022-07-04T07:22:07;4.70;;;3.90;;
45548;SDS011;31270;48.328;10.096;2022-07-04T07:24:37;6.85;;;4.70;;
45548;SDS011;31270;48.328;10.096;2022-07-04T07:27:03;7.60;;;5.03;;
45548;SDS011;31270;48.328;10.096;2022-07-04T07:29:29;6.68;;;4.00;;
45548;SDS011;31270;48.328;10.096;2022-07-04T07:31:55;6.35;;;4.40;;
45548;SDS011;31270;48.328;10.096;2022-07-04T07:34:21;6.18;;;4.07;;
45548;SDS011;31270;48.328;10.096;2022-07-04T07:36:47;9.60;;;4.25;;
45548;SDS011;31270;48.328;10.096;2022-07-04T07:39:12;6.43;;;3.90;;
45548;SDS011;31270;48.328;10.096;2022-07-04T07:41:38;4.72;;;4.07;;
45548;SDS011;31270;48.328;10.096;2022-07-04T07:44:03;5.00;;;4.10;;
45548;SDS011;31270;48.328;10.096;2022-07-04T07:46:29;4.22;;;3.83;;
45548;SDS011;31270;48.328;10.096;2022-07-04T07:48:55;4.07;;;3.70;;
45548;SDS011;31270;48.328;10.096;2022-07-04T07:51:21;6.10;;;4.22;;
45548;SDS011;31270;48.328;10.096;2022-07-04T07:53:47;4.68;;;3.90;;
45548;SDS011;31270;48.328;10.096;2022-07-04T07:56:12;4.13;;;3.72;;
45548;SDS011;31270;48.328;10.096;2022-07-04T07:58:38;4.10;;;3.65;;
45548;SDS011;31270;48.328;10.096;2022-07-04T08:01:04;7.82;;;3.53;;
45548;SDS011;31270;48.328;10.096;2022-07-04T08:03:30;3.60;;;3.30;;
45548;SDS011;31270;48.328;10.096;2022-07-04T08:06:15;4.38;;;3.75;;
45548;SDS011;31270;48.328;10.096;2022-07-04T08:08:41;4.20;;;3.65;;
45548;SDS011;31270;48.328;10.096;2022-07-04T08:11:08;4.43;;;3.40;;
45548;SDS011;31270;48.328;10.096;2022-07-04T08:13:34;5.45;;;3.45;;
45548;SDS011;31270;48.328;10.096;2022-07-04T08:16:00;5.65;;;3.42;;
45548;SDS011;31270;48.328;10.096;2022-07-04T08:18:25;5.05;;;3.20;;
45548;SDS011;31270;48.328;10.096;2022-07-04T08:20:51;4.10;;;3.58;;
45548;SDS011;31270;48.328;10.096;2022-07-04T08:23:17;3.80;;;3.40;;
45548;SDS011;31270;48.328;10.096;2022-07-04T08:25:43;4.07;;;3.67;;
45548;SDS011;31270;48.328;10.096;2022-07-04T08:28:08;4.38;;;3.42;;
45548;SDS011;31270;48.328;10.096;2022-07-04T08:30:34;7.75;;;4.20;;
45548;SDS011;31270;48.328;10.096;2022-07-04T08:33:00;3.83;;;3.40;;
45548;SDS011;31270;48.328;10.096;2022-07-04T08:35:26;4.22;;;2.90;;
45548;SDS011;31270;48.328;10.096;2022-07-04T08:37:52;3.53;;;3.10;;
45548;SDS011;31270;48.328;10.096;2022-07-04T08:40:23;4.93;;;2.88;;
45548;SDS011;31270;48.328;10.096;2022-07-04T08:42:51;6.28;;;3.22;;
45548;SDS011;31270;48.328;10.096;2022-07-04T08:45:18;4.97;;;2.85;;
45548;SDS011;31270;48.328;10.096;2022-07-04T08:47:51;3.05;;;2.75;;
45548;SDS011;31270;48.328;10.096;2022-07-04T08:50:22;4.03;;;3.05;;
45548;SDS011;31270;48.328;10.096;2022-07-04T08:52:56;3.22;;;2.92;;
45548;SDS011;31270;48.328;10.096;2022-07-04T08:55:32;5.68;;;2.95;;
45548;SDS011;31270;48.328;10.096;2022-07-04T08:58:17;3.20;;;2.67;;
45548;SDS011;31270;48.328;10.096;2022-07-04T09:00:57;5.15;;;2.90;;
45548;SDS011;31270;48.328;10.096;2022-07-04T09:03:30;2.80;;;2.50;;
45548;SDS011;31270;48.328;10.096;2022-07-04T09:05:57;3.60;;;3.03;;
45548;SDS011;31270;48.328;10.096;2022-07-04T09:08:24;4.85;;;2.90;;
45548;SDS011;31270;48.328;10.096;2022-07-04T09:10:51;3.72;;;2.83;;
45548;SDS011;31270;48.328;10.096;2022-07-04T09:13:17;3.50;;;2.45;;
45548;SDS011;31270;48.328;10.096;2022-07-04T09:15:48;5.30;;;2.72;;
45548;SDS011;31270;48.328;10.096;2022-07-04T09:18:19;2.65;;;2.40;;
45548;SDS011;31270;48.328;10.096;2022-07-04T09:20:56;4.93;;;3.40;;
45548;SDS011;31270;48.328;10.096;2022-07-04T09:23:32;4.35;;;2.35;;
45548;SDS011;31270;48.328;10.096;2022-07-04T09:26:16;5.20;;;2.80;;
45548;SDS011;31270;48.328;10.096;2022-07-04T09:28:53;2.50;;;2.03;;
45548;SDS011;31270;48.328;10.096;2022-07-04T09:31:25;1.98;;;1.88;;
45548;SDS011;31270;48.328;10.096;2022-07-04T09:33:56;2.95;;;2.10;;
45548;SDS011;31270;48.328;10.096;2022-07-04T09:36:24;9.38;;;2.28;;
45548;SDS011;31270;48.328;10.096;2022-07-04T09:41:58;8.00;;;1.80;;
45548;SDS011;31270;48.328;10.096;2022-07-04T09:44:26;3.75;;;2.05;;
45548;SDS011;31270;48.328;10.096;2022-07-04T09:46:54;11.55;;;2.60;;
45548;SDS011;31270;48.328;10.096;2022-07-04T09:49:21;3.15;;;2.10;;
45548;SDS011;31270;48.328;10.096;2022-07-04T09:51:48;4.68;;;2.17;;
45548;SDS011;31270;48.328;10.096;2022-07-04T09:54:25;3.05;;;1.80;;
45548;SDS011;31270;48.328;10.096;2022-07-04T09:56:57;3.83;;;2.33;;
45548;SDS011;31270;48.328;10.096;2022-07-04T09:59:24;3.47;;;2.13;;
45548;SDS011;31270;48.328;10.096;2022-07-04T10:01:52;5.05;;;2.25;;
45548;SDS011;31270;48.328;10.096;2022-07-04T10:04:45;3.40;;;2.10;;
45548;SDS011;31270;48.328;10.096;2022-07-04T10:07:35;3.30;;;2.13;;
45548;SDS011;31270;48.328;10.096;2022-07-04T10:12:54;4.10;;;2.10;;
45548;SDS011;31270;48.328;10.096;2022-07-04T10:15:21;4.20;;;2.03;;
45548;SDS011;31270;48.328;10.096;2022-07-04T10:17:47;4.13;;;2.10;;
45548;SDS011;31270;48.328;10.096;2022-07-04T10:20:13;2.33;;;2.00;;
45548;SDS011;31270;48.328;10.096;2022-07-04T10:22:39;3.33;;;2.20;;
45548;SDS011;31270;48.328;10.096;2022-07-04T10:25:05;3.80;;;2.15;;
45548;SDS011;31270;48.328;10.096;2022-07-04T10:27:33;4.40;;;2.25;;
45548;SDS011;31270;48.328;10.096;2022-07-04T10:29:59;2.38;;;1.85;;
45548;SDS011;31270;48.328;10.096;2022-07-04T10:32:27;2.47;;;2.28;;
45548;SDS011;31270;48.328;10.096;2022-07-04T10:34:53;2.55;;;2.33;;
45548;SDS011;31270;48.328;10.096;2022-07-04T10:37:19;2.30;;;2.10;;
45548;SDS011;31270;48.328;10.096;2022-07-04T10:39:46;3.58;;;2.42;;
45548;SDS011;31270;48.328;10.096;2022-07-04T10:42:24;2.22;;;2.03;;
45548;SDS011;31270;48.328;10.096;2022-07-04T10:44:51;3.17;;;1.92;;
45548;SDS011;31270;48.328;10.096;2022-07-04T10:47:23;2.10;;;1.90;;
45548;SDS011;31270;48.328;10.096;2022-07-04T10:49:50;4.00;;;2.10;;
45548;SDS011;31270;48.328;10.096;2022-07-04T10:52:16;3.38;;;2.00;;
45548;SDS011;31270;48.328;10.096;2022-07-04T10:54:43;4.88;;;1.98;;
45548;SDS011;31270;48.328;10.096;2022-07-04T10:57:11;4.25;;;2.35;;
45548;SDS011;31270;48.328;10.096;2022-07-04T10:59:44;4.50;;;2.28;;
45548;SDS011;31270;48.328;10.096;2022-07-04T11:02:29;2.25;;;2.05;;
45548;SDS011;31270;48.328;10.096;2022-07-04T11:16:04;3.15;;;2.25;;
45548;SDS011;31270;48.328;10.096;2022-07-04T11:18:13;2.20;;;1.90;;
45548;SDS011;31270;48.328;10.096;2022-07-04T11:20:45;2.63;;;2.15;;
45548;SDS011;31270;48.328;10.096;2022-07-04T11:23:17;2.38;;;2.03;;
45548;SDS011;31270;48.328;10.096;2022-07-04T11:25:45;3.70;;;2.35;;
45548;SDS011;31270;48.328;10.096;2022-07-04T11:28:31;3.83;;;2.17;;
45548;SDS011;31270;48.328;10.096;2022-07-04T11:31:01;3.28;;;2.30;;
45548;SDS011;31270;48.328;10.096;2022-07-04T11:33:32;2.25;;;1.90;;
45548;SDS011;31270;48.328;10.096;2022-07-04T11:36:07;3.25;;;2.40;;
45548;SDS011;31270;48.328;10.096;2022-07-04T11:38:42;3.42;;;2.33;;
45548;SDS011;31270;48.328;10.096;2022-07-04T11:41:14;2.85;;;2.30;;
45548;SDS011;31270;48.328;10.096;2022-07-04T11:44:02;2.90;;;2.38;;
45548;SDS011;31270;48.328;10.096;2022-07-04T11:46:48;3.15;;;2.42;;
45548;SDS011;31270;48.328;10.096;2022-07-04T11:49:14;2.55;;;2.35;;
45548;SDS011;31270;48.328;10.096;2022-07-04T11:51:46;3.58;;;2.47;;
45548;SDS011;31270;48.328;10.096;2022-07-04T11:54:12;3.45;;;2.40;;
45548;SDS011;31270;48.328;10.096;2022-07-04T11:56:38;3.60;;;2.75;;
45548;SDS011;31270;48.328;10.096;2022-07-04T11:59:10;2.30;;;2.10;;
45548;SDS011;31270;48.328;10.096;2022-07-04T12:01:38;3.38;;;2.55;;
45548;SDS011;31270;48.328;10.096;2022-07-04T12:04:38;2.95;;;2.58;;
45548;SDS011;31270;48.328;10.096;2022-07-04T12:06:56;2.67;;;2.47;;
45548;SDS011;31270;48.328;10.096;2022-07-04T12:09:22;2.40;;;2.20;;
45548;SDS011;31270;48.328;10.096;2022-07-04T12:11:54;2.60;;;2.40;;
45548;SDS011;31270;48.328;10.096;2022-07-04T12:14:23;2.88;;;2.67;;
45548;SDS011;31270;48.328;10.096;2022-07-04T12:17:07;3.45;;;2.50;;
45548;SDS011;31270;48.328;10.096;2022-07-04T12:19:38;2.53;;;2.33;;
45548;SDS011;31270;48.328;10.096;2022-07-04T12:22:29;3.60;;;2.65;;
45548;SDS011;31270;48.328;10.096;2022-07-04T12:24:57;4.53;;;2.70;;
45548;SDS011;31270;48.328;10.096;2022-07-04T12:27:24;3.28;;;2.97;;
45548;SDS011;31270;48.328;10.096;2022-07-04T12:29:51;3.20;;;2.90;;
45548;SDS011;31270;48.328;10.096;2022-07-04T12:32:18;5.40;;;2.78;;
45548;SDS011;31270;48.328;10.096;2022-07-04T12:34:44;5.40;;;2.95;;
45548;SDS011;31270;48.328;10.096;2022-07-04T12:37:11;3.38;;;2.90;;
45548;SDS011;31270;48.328;10.096;2022-07-04T12:39:39;3.30;;;3.00;;
45548;SDS011;31270;48.328;10.096;2022-07-04T12:44:45;5.13;;;3.20;;
45548;SDS011;31270;48.328;10.096;2022-07-04T12:47:14;3.30;;;3.00;;
45548;SDS011;31270;48.328;10.096;2022-07-04T12:49:45;3.30;;;3.00;;
45548;SDS011;31270;48.328;10.096;2022-07-04T12:52:12;5.10;;;3.35;;
45548;SDS011;31270;48.328;10.096;2022-07-04T12:54:43;7.55;;;3.30;;
45548;SDS011;31270;48.328;10.096;2022-07-04T12:57:13;3.17;;;2.88;;
45548;SDS011;31270;48.328;10.096;2022-07-04T12:59:43;5.47;;;2.97;;
45548;SDS011;31270;48.328;10.096;2022-07-04T13:02:09;3.58;;;2.80;;
45548;SDS011;31270;48.328;10.096;2022-07-04T13:04:37;5.57;;;2.58;;
45548;SDS011;31270;48.328;10.096;2022-07-04T13:07:13;2.70;;;2.50;;
45548;SDS011;31270;48.328;10.096;2022-07-04T13:09:40;2.70;;;2.50;;
45548;SDS011;31270;48.328;10.096;2022-07-04T13:12:07;2.72;;;2.53;;
45548;SDS011;31270;48.328;10.096;2022-07-04T13:14:55;5.50;;;3.13;;
45548;SDS011;31270;48.328;10.096;2022-07-04T13:17:23;3.85;;;2.83;;
45548;SDS011;31270;48.328;10.096;2022-07-04T13:19:51;3.10;;;2.47;;
45548;SDS011;31270;48.328;10.096;2022-07-04T13:22:17;3.15;;;2.90;;
45548;SDS011;31270;48.328;10.096;2022-07-04T13:24:44;4.25;;;2.85;;
45548;SDS011;31270;48.328;10.096;2022-07-04T13:27:10;4.65;;;3.33;;
45548;SDS011;31270;48.328;10.096;2022-07-04T13:29:36;3.25;;;2.90;;
45548;SDS011;31270;48.328;10.096;2022-07-04T13:32:02;3.53;;;3.17;;
45548;SDS011;31270;48.328;10.096;2022-07-04T13:34:28;3.58;;;2.70;;
45548;SDS011;31270;48.328;10.096;2022-07-04T13:36:54;3.33;;;2.35;;
45548;SDS011;31270;48.328;10.096;2022-07-04T13:39:21;3.95;;;2.72;;
45548;SDS011;31270;48.328;10.096;2022-07-04T13:41:49;4.13;;;2.70;;
45548;SDS011;31270;48.328;10.096;2022-07-04T13:44:15;3.22;;;2.80;;
45548;SDS011;31270;48.328;10.096;2022-07-04T13:46:41;5.22;;;2.83;;
45548;SDS011;31270;48.328;10.096;2022-07-04T13:49:08;2.90;;;2.60;;
45548;SDS011;31270;48.328;10.096;2022-07-04T13:51:33;4.70;;;2.70;;
45548;SDS011;31270;48.328;10.096;2022-07-04T13:53:59;2.65;;;2.45;;
45548;SDS011;31270;48.328;10.096;2022-07-04T13:56:25;4.95;;;2.40;;
45548;SDS011;31270;48.328;10.096;2022-07-04T13:58:51;7.75;;;2.40;;
45548;SDS011;31270;48.328;10.096;2022-07-04T14:01:17;7.18;;;2.72;;
45548;SDS011;31270;48.328;10.096;2022-07-04T14:03:44;3.75;;;2.65;;
45548;SDS011;31270;48.328;10.096;2022-07-04T14:06:10;2.63;;;2.30;;
45548;SDS011;31270;48.328;10.096;2022-07-04T14:08:36;2.33;;;2.17;;
45548;SDS011;31270;48.328;10.096;2022-07-04T14:11:02;3.78;;;2.42;;
45548;SDS011;31270;48.328;10.096;2022-07-04T14:13:28;4.45;;;2.70;;
45548;SDS011;31270;48.328;10.096;2022-07-04T14:15:54;3.03;;;2.22;;
45548;SDS011;31270;48.328;10.096;2022-07-04T14:18:20;3.95;;;2.90;;
45548;SDS011;31270;48.328;10.096;2022-07-04T14:20:46;3.13;;;2.42;;
45548;SDS011;31270;48.328;10.096;2022-07-04T14:23:13;3.80;;;2.75;;
45548;SDS011;31270;48.328;10.096;2022-07-04T14:25:39;5.93;;;2.42;;
45548;SDS011;31270;48.328;10.096;2022-07-04T14:28:04;9.68;;;2.90;;
45548;SDS011;31270;48.328;10.096;2022-07-04T14:30:30;5.18;;;3.17;;
45548;SDS011;31270;48.328;10.096;2022-07-04T14:32:56;3.63;;;2.53;;
45548;SDS011;31270;48.328;10.096;2022-07-04T14:35:22;5.05;;;2.72;;
45548;SDS011;31270;48.328;10.096;2022-07-04T14:37:47;5.63;;;2.83;;
45548;SDS011;31270;48.328;10.096;2022-07-04T14:40:20;5.68;;;2.72;;
45548;SDS011;31270;48.328;10.096;2022-07-04T14:42:46;2.88;;;2.50;;
45548;SDS011;31270;48.328;10.096;2022-07-04T14:45:13;5.00;;;2.90;;
45548;SDS011;31270;48.328;10.096;2022-07-04T14:47:38;4.43;;;3.10;;
45548;SDS011;31270;48.328;10.096;2022-07-04T14:50:06;4.43;;;2.97;;
45548;SDS011;31270;48.328;10.096;2022-07-04T14:52:33;5.22;;;3.00;;
45548;SDS011;31270;48.328;10.096;2022-07-04T14:55:00;3.15;;;2.80;;